Terminal Aerodrome Forecast
Issued by NWS

Home | Current Version | Previous Version | Text Only | Print | Product List | Glossary Off
Versions: 1 2 3 4 5 6 7 8 9 10 11 12 13 14 15 16 17 18

000
FTUS43 KMPX 241739
TAFRWF
TAF
KRWF 241739Z 2418/2518 27008KT P6SM SCT150
     FM250000 29005KT P6SM VCSH SCT020 BKN035 OVC070
     FM250300 36005KT 2SM -SN OVC020
     FM250400 03011KT 1 1/2SM -SN OVC009
      TEMPO 2504/2508 3/4SM -SN VV006
     FM250900 03010KT 6SM -SN OVC020
     FM251100 03009KT P6SM BKN025
     FM251500 03007KT P6SM SCT025=

USA.gov is the U.S. government's official web portal to all federal, state and local government web resources and services.